createdAt,value
2017-12-20T00:00:24.881Z,35.05
2017-12-20T00:02:53.034Z,33.78
2017-12-20T00:05:20.212Z,31.85
2017-12-20T00:07:47.455Z,34.25
2017-12-20T00:10:15.095Z,34.35
2017-12-20T00:12:41.682Z,37.30
2017-12-20T00:15:09.033Z,41.33
2017-12-20T00:17:36.962Z,37.95
2017-12-20T00:20:04.079Z,37.65
2017-12-20T00:22:31.498Z,38.22
2017-12-20T00:24:59.051Z,33.20
2017-12-20T00:27:26.200Z,42.10
2017-12-20T00:29:53.242Z,36.97
2017-12-20T00:32:21.019Z,38.22
2017-12-20T00:34:48.398Z,35.08
2017-12-20T00:37:15.258Z,32.33
2017-12-20T00:39:41.897Z,32.65
2017-12-20T00:42:08.795Z,31.10
2017-12-20T00:44:35.455Z,30.10
2017-12-20T00:47:02.434Z,29.08
2017-12-20T00:49:29.392Z,26.20
2017-12-20T00:51:56.935Z,27.60
2017-12-20T00:54:24.087Z,28.83
2017-12-20T00:57:05.602Z,30.88
2017-12-20T00:59:33.198Z,25.98
2017-12-20T01:01:59.997Z,27.50
2017-12-20T01:04:26.513Z,25.33
2017-12-20T01:06:53.518Z,22.92
2017-12-20T01:09:21.251Z,23.92
2017-12-20T01:11:48.500Z,20.95
2017-12-20T01:14:15.768Z,22.42
2017-12-20T01:16:42.506Z,19.25
2017-12-20T01:19:09.554Z,20.65
2017-12-20T01:21:36.699Z,16.12
2017-12-20T01:24:03.775Z,18.27
2017-12-20T01:26:31.655Z,17.75
2017-12-20T01:28:58.395Z,12.88
2017-12-20T01:31:25.195Z,18.98
2017-12-20T01:33:51.766Z,16.27
2017-12-20T01:36:18.295Z,19.90
2017-12-20T01:38:45.450Z,17.05
2017-12-20T01:41:12.131Z,14.98
2017-12-20T01:43:39.568Z,13.20
2017-12-20T01:46:07.237Z,17.35
2017-12-20T01:48:34.108Z,15.23
2017-12-20T01:51:01.894Z,15.38
2017-12-20T01:53:28.878Z,14.23
2017-12-20T01:55:55.698Z,13.20
2017-12-20T01:58:22.984Z,13.20
2017-12-20T02:00:49.963Z,10.88
2017-12-20T02:03:16.803Z,14.48
2017-12-20T02:05:43.631Z,12.18
2017-12-20T02:08:11.015Z,8.70
2017-12-20T02:10:37.731Z,13.73
2017-12-20T02:13:04.602Z,10.93
2017-12-20T02:15:31.462Z,11.38
2017-12-20T02:17:58.502Z,13.00
2017-12-20T02:20:25.482Z,10.90
2017-12-20T02:22:52.418Z,9.32
2017-12-20T02:25:19.686Z,10.35
2017-12-20T02:27:46.531Z,7.60
2017-12-20T02:30:13.183Z,10.10
2017-12-20T02:32:39.675Z,11.82
2017-12-20T02:35:06.505Z,11.63
2017-12-20T02:37:33.234Z,10.88
2017-12-20T02:40:00.955Z,13.77
2017-12-20T02:42:27.949Z,12.55
2017-12-20T02:44:55.770Z,9.23
2017-12-20T02:47:22.355Z,11.00
2017-12-20T02:49:50.698Z,12.15
2017-12-20T02:52:17.523Z,11.10
2017-12-20T02:54:44.169Z,10.57
2017-12-20T02:57:11.319Z,10.60
2017-12-20T02:59:38.219Z,12.43
2017-12-20T03:02:06.058Z,11.45
2017-12-20T03:04:33.135Z,11.57
2017-12-20T03:07:00.474Z,10.20
2017-12-20T03:09:27.405Z,10.75
2017-12-20T03:11:54.483Z,11.60
2017-12-20T03:14:21.039Z,11.05
2017-12-20T03:16:47.772Z,9.65
2017-12-20T03:19:14.842Z,9.40
2017-12-20T03:21:42.394Z,10.38
2017-12-20T03:24:09.171Z,11.57
2017-12-20T03:26:36.588Z,11.60
2017-12-20T03:29:03.860Z,10.38
2017-12-20T03:31:31.019Z,11.35
2017-12-20T03:33:57.851Z,10.48
2017-12-20T03:36:24.590Z,9.73
2017-12-20T03:38:51.019Z,10.02
2017-12-20T03:41:18.294Z,11.95
2017-12-20T03:43:45.021Z,10.15
2017-12-20T03:46:12.218Z,12.85
2017-12-20T03:48:40.400Z,8.73
2017-12-20T03:51:07.819Z,10.63
2017-12-20T03:53:34.899Z,10.82
2017-12-20T03:56:01.419Z,11.82
2017-12-20T03:58:28.250Z,13.35
2017-12-20T04:00:55.021Z,10.25
2017-12-20T04:03:22.062Z,10.77
2017-12-20T04:05:49.006Z,9.00
2017-12-20T04:08:16.285Z,12.77
2017-12-20T04:10:43.674Z,12.35
2017-12-20T04:13:11.932Z,11.35
2017-12-20T04:15:38.338Z,11.12
2017-12-20T04:18:05.202Z,12.10
2017-12-20T04:20:32.122Z,10.45
2017-12-20T04:22:59.075Z,10.70
2017-12-20T04:25:25.735Z,11.73
2017-12-20T04:27:52.614Z,13.77
2017-12-20T04:30:19.746Z,10.48
2017-12-20T04:32:46.978Z,11.65
2017-12-20T04:35:13.944Z,11.18
2017-12-20T04:37:40.510Z,10.32
2017-12-20T04:40:07.551Z,12.77
2017-12-20T04:42:34.503Z,12.27
2017-12-20T04:45:01.454Z,8.50
2017-12-20T04:47:28.261Z,10.23
2017-12-20T04:49:55.270Z,11.88
2017-12-20T04:52:22.562Z,8.52
2017-12-20T04:54:50.190Z,9.20
2017-12-20T04:57:16.966Z,8.65
2017-12-20T04:59:44.698Z,29.73
2017-12-20T05:02:11.710Z,21.42
2017-12-20T05:04:38.513Z,18.58
2017-12-20T05:09:58.052Z,9.75
2017-12-20T05:12:24.916Z,9.40
2017-12-20T05:14:52.335Z,8.52
2017-12-20T05:17:18.902Z,11.23
2017-12-20T05:19:45.724Z,9.77
2017-12-20T05:22:12.676Z,9.05
2017-12-20T05:24:39.675Z,10.13
2017-12-20T05:27:06.531Z,8.30
2017-12-20T05:29:33.684Z,7.90
2017-12-20T05:32:08.598Z,9.60
2017-12-20T05:34:35.606Z,8.73
2017-12-20T05:37:03.000Z,10.65
2017-12-20T05:39:29.435Z,9.02
2017-12-20T05:41:56.718Z,6.65
2017-12-20T05:44:23.424Z,9.90
2017-12-20T05:46:50.395Z,10.93
2017-12-20T05:49:16.791Z,10.07
2017-12-20T05:51:44.528Z,10.40
2017-12-20T05:54:11.094Z,9.20
2017-12-20T05:56:38.319Z,10.20
2017-12-20T05:59:05.191Z,10.23
2017-12-20T06:01:32.179Z,9.50
2017-12-20T06:03:58.872Z,10.77
2017-12-20T06:06:26.016Z,14.07
2017-12-20T06:08:53.170Z,11.70
2017-12-20T06:11:22.117Z,10.45
2017-12-20T06:13:49.045Z,10.35
2017-12-20T06:16:17.075Z,8.98
2017-12-20T06:18:43.679Z,9.15
2017-12-20T06:21:11.075Z,9.88
2017-12-20T06:23:37.726Z,11.05
2017-12-20T06:26:04.598Z,8.85
2017-12-20T06:28:31.105Z,13.00
2017-12-20T06:30:59.319Z,10.93
2017-12-20T06:33:25.821Z,11.85
2017-12-20T06:35:52.895Z,11.98
2017-12-20T06:38:19.670Z,13.07
2017-12-20T06:40:47.520Z,9.77
2017-12-20T06:43:14.562Z,12.55
2017-12-20T06:45:41.153Z,12.85
2017-12-20T06:48:10.861Z,14.10
2017-12-20T06:50:38.710Z,12.65
2017-12-20T06:53:05.646Z,11.77
2017-12-20T06:55:32.137Z,13.40
2017-12-20T06:57:58.739Z,13.40
2017-12-20T07:00:25.831Z,10.30
2017-12-20T07:02:53.188Z,11.32
2017-12-20T07:05:20.225Z,13.48
2017-12-20T07:07:48.101Z,12.35
2017-12-20T07:10:15.827Z,13.45
2017-12-20T07:12:42.919Z,11.68
2017-12-20T07:15:10.269Z,13.15
2017-12-20T07:17:37.890Z,11.80
2017-12-20T07:20:04.476Z,12.23
2017-12-20T07:22:31.324Z,14.30
2017-12-20T07:24:59.232Z,13.45
2017-12-20T07:27:25.926Z,13.62
2017-12-20T07:29:52.631Z,14.35
2017-12-20T07:32:19.746Z,14.68
2017-12-20T07:34:47.600Z,15.15
2017-12-20T07:37:14.413Z,12.45
2017-12-20T07:39:41.306Z,14.98
2017-12-20T07:42:08.193Z,16.15
2017-12-20T07:44:35.398Z,13.75
2017-12-20T07:47:02.447Z,15.30
2017-12-20T07:49:29.283Z,13.20
2017-12-20T07:51:56.535Z,37.20
2017-12-20T07:54:23.194Z,16.00
2017-12-20T07:56:49.813Z,14.55
2017-12-20T07:59:17.298Z,17.70
2017-12-20T08:01:44.294Z,14.82
2017-12-20T08:04:11.417Z,15.68
2017-12-20T08:06:38.667Z,16.52
2017-12-20T08:09:06.425Z,17.62
2017-12-20T08:11:33.379Z,13.32
2017-12-20T08:14:00.193Z,16.65
2017-12-20T08:16:26.759Z,21.27
2017-12-20T08:18:53.906Z,15.18
2017-12-20T08:21:20.952Z,15.70
2017-12-20T08:23:47.855Z,15.43
2017-12-20T08:26:15.454Z,16.58
2017-12-20T08:28:50.798Z,13.35
2017-12-20T08:31:17.777Z,16.27
2017-12-20T08:33:44.843Z,18.48
2017-12-20T08:36:12.086Z,12.73
2017-12-20T08:38:38.625Z,14.55
2017-12-20T08:41:05.570Z,16.87
2017-12-20T08:43:32.839Z,13.38
2017-12-20T08:46:00.260Z,14.35
2017-12-20T08:48:27.444Z,15.57
2017-12-20T08:50:54.504Z,13.88
2017-12-20T08:53:21.306Z,14.05
2017-12-20T08:55:48.174Z,14.75
2017-12-20T08:58:15.077Z,16.65
2017-12-20T09:00:42.914Z,15.65
2017-12-20T09:03:10.069Z,11.15
2017-12-20T09:05:36.820Z,14.40
2017-12-20T09:08:03.780Z,13.60
2017-12-20T09:10:30.698Z,14.68
2017-12-20T09:12:57.397Z,15.18
2017-12-20T09:15:25.124Z,13.80
2017-12-20T09:17:52.464Z,19.98
2017-12-20T09:20:19.983Z,21.58
2017-12-20T09:22:48.152Z,20.90
2017-12-20T09:25:15.502Z,19.30
2017-12-20T09:27:42.159Z,15.23
2017-12-20T09:30:09.741Z,18.50
2017-12-20T09:32:38.605Z,17.67
2017-12-20T09:35:06.979Z,16.80
2017-12-20T09:37:34.212Z,12.37
2017-12-20T09:40:01.019Z,16.37
2017-12-20T09:42:28.294Z,16.45
2017-12-20T09:44:55.483Z,15.95
2017-12-20T09:47:22.259Z,15.30
2017-12-20T09:49:49.286Z,14.23
2017-12-20T09:52:15.909Z,12.75
2017-12-20T09:54:42.814Z,14.52
2017-12-20T09:57:10.438Z,16.08
2017-12-20T09:59:37.253Z,13.85
2017-12-20T10:02:04.255Z,13.77
2017-12-20T10:04:31.302Z,15.60
2017-12-20T10:06:58.086Z,40.47
2017-12-20T10:09:25.712Z,16.05
2017-12-20T10:11:52.728Z,14.10
2017-12-20T10:14:20.116Z,14.82
2017-12-20T10:16:47.193Z,15.40
2017-12-20T10:19:14.609Z,15.95
2017-12-20T10:21:41.993Z,13.00
2017-12-20T10:24:09.027Z,15.05
2017-12-20T10:26:36.429Z,14.70
2017-12-20T10:29:03.475Z,15.68
2017-12-20T10:31:31.310Z,16.98
2017-12-20T10:33:57.987Z,13.85
2017-12-20T10:36:25.843Z,15.35
2017-12-20T10:38:53.058Z,17.55
2017-12-20T10:41:22.159Z,14.30
2017-12-20T10:43:49.086Z,16.77
2017-12-20T10:46:16.735Z,15.70
2017-12-20T10:48:43.370Z,17.10
2017-12-20T10:51:10.306Z,15.82
2017-12-20T10:53:37.270Z,13.45
2017-12-20T10:56:04.323Z,17.10
2017-12-20T10:58:31.076Z,14.68
2017-12-20T11:00:58.030Z,13.75
2017-12-20T11:03:25.182Z,14.20
2017-12-20T11:05:51.918Z,13.10
2017-12-20T11:08:18.970Z,12.02
2017-12-20T11:10:47.332Z,14.07
2017-12-20T11:13:14.498Z,13.20
2017-12-20T11:15:42.074Z,14.87
2017-12-20T11:18:08.858Z,16.77
2017-12-20T11:20:35.464Z,19.08
2017-12-20T11:23:02.343Z,14.00
2017-12-20T11:25:29.528Z,13.43
2017-12-20T11:27:56.725Z,15.20
2017-12-20T11:30:23.361Z,13.90
2017-12-20T11:32:50.196Z,16.48
2017-12-20T11:35:16.987Z,14.98
2017-12-20T11:37:44.512Z,10.75
2017-12-20T11:40:11.487Z,13.68
2017-12-20T11:42:38.130Z,11.68
2017-12-20T11:45:05.887Z,12.98
2017-12-20T11:47:32.329Z,14.23
2017-12-20T11:49:59.577Z,14.55
2017-12-20T11:52:26.718Z,13.65
2017-12-20T11:54:53.459Z,15.20
2017-12-20T11:57:20.668Z,12.88
2017-12-20T11:59:47.684Z,12.95
2017-12-20T12:02:14.951Z,12.65
2017-12-20T12:04:42.120Z,11.20
2017-12-20T12:07:09.555Z,12.60
2017-12-20T12:09:36.192Z,12.57
2017-12-20T12:12:02.835Z,12.73
2017-12-20T12:14:31.892Z,12.80
2017-12-20T12:16:58.342Z,10.55
2017-12-20T12:19:25.321Z,10.88
2017-12-20T12:21:59.247Z,9.60
2017-12-20T12:24:25.943Z,13.43
2017-12-20T12:26:52.932Z,15.27
2017-12-20T12:29:19.698Z,9.35
2017-12-20T12:31:46.463Z,11.20
2017-12-20T12:34:14.260Z,13.77
2017-12-20T12:36:41.376Z,12.70
2017-12-20T12:39:08.932Z,10.57
2017-12-20T12:41:36.168Z,10.25
2017-12-20T12:44:02.926Z,10.50
2017-12-20T12:46:33.742Z,9.20
2017-12-20T12:49:00.506Z,10.00
2017-12-20T12:51:27.550Z,14.80
2017-12-20T12:53:54.269Z,12.27
2017-12-20T12:56:20.826Z,12.40
2017-12-20T12:58:48.062Z,13.60
2017-12-20T13:01:14.671Z,11.70
2017-12-20T13:03:42.440Z,11.23
2017-12-20T13:06:09.823Z,15.30
2017-12-20T13:08:37.018Z,14.18
2017-12-20T13:11:04.990Z,14.23
2017-12-20T13:13:31.851Z,11.27
2017-12-20T13:16:01.703Z,14.52
2017-12-20T13:18:28.312Z,13.90
2017-12-20T13:20:55.252Z,15.80
2017-12-20T13:23:22.502Z,11.75
2017-12-20T13:25:50.368Z,12.82
2017-12-20T13:28:16.988Z,12.80
2017-12-20T13:30:44.446Z,10.48
2017-12-20T13:33:11.946Z,10.98
2017-12-20T13:35:41.370Z,10.90
2017-12-20T13:38:08.406Z,9.50
2017-12-20T13:40:35.859Z,18.73
2017-12-20T13:43:02.551Z,11.38
2017-12-20T13:45:29.726Z,10.07
2017-12-20T13:47:56.914Z,11.00
2017-12-20T13:50:24.025Z,10.98
2017-12-20T13:52:51.023Z,11.18
2017-12-20T13:55:18.044Z,9.15
2017-12-20T13:57:46.222Z,9.43
2017-12-20T14:00:12.885Z,10.13
2017-12-20T14:02:40.022Z,9.35
2017-12-20T14:05:06.768Z,10.95
2017-12-20T14:07:35.147Z,10.25
2017-12-20T14:10:02.034Z,9.00
2017-12-20T14:12:29.018Z,18.00
2017-12-20T14:14:56.831Z,10.05
2017-12-20T14:17:23.726Z,8.30
2017-12-20T14:19:51.283Z,11.50
2017-12-20T14:22:18.419Z,10.57
2017-12-20T14:24:45.094Z,9.35
2017-12-20T14:27:12.686Z,10.40
2017-12-20T14:29:39.634Z,10.38
2017-12-20T14:32:06.423Z,10.65
2017-12-20T14:34:33.380Z,11.48
2017-12-20T14:37:00.063Z,10.80
2017-12-20T14:39:26.983Z,14.10
2017-12-20T14:41:53.722Z,12.43
2017-12-20T14:44:21.991Z,11.12
2017-12-20T14:46:50.226Z,10.65
2017-12-20T14:49:17.335Z,12.90
2017-12-20T14:51:44.083Z,10.93
2017-12-20T14:54:11.138Z,11.27
2017-12-20T14:56:38.076Z,11.65
2017-12-20T14:59:05.081Z,11.60
2017-12-20T15:01:32.155Z,11.95
2017-12-20T15:03:58.566Z,12.30
2017-12-20T15:06:25.598Z,11.60
2017-12-20T15:08:53.115Z,11.65
2017-12-20T15:11:22.244Z,13.52
2017-12-20T15:13:48.680Z,13.80
2017-12-20T15:16:15.833Z,14.60
2017-12-20T15:18:42.817Z,16.00
2017-12-20T15:21:11.384Z,23.75
2017-12-20T15:23:38.022Z,24.25
2017-12-20T15:26:05.056Z,18.02
2017-12-20T15:28:31.738Z,19.05
2017-12-20T15:30:59.576Z,16.35
2017-12-20T15:33:26.198Z,21.48
2017-12-20T15:35:53.471Z,31.15
2017-12-20T15:38:22.278Z,25.27
2017-12-20T15:40:50.590Z,20.42
2017-12-20T15:43:17.752Z,16.33
2017-12-20T15:45:45.670Z,16.85
2017-12-20T15:48:12.586Z,17.70
2017-12-20T15:50:39.974Z,15.32
2017-12-20T15:53:06.779Z,14.80
2017-12-20T15:55:34.231Z,17.75
2017-12-20T15:58:02.025Z,18.15
2017-12-20T16:00:28.970Z,13.82
2017-12-20T16:02:56.283Z,16.77
2017-12-20T16:05:23.139Z,15.20
2017-12-20T16:07:50.533Z,16.20
2017-12-20T16:10:17.329Z,17.30
2017-12-20T16:12:48.963Z,16.02
2017-12-20T16:15:15.942Z,15.13
2017-12-20T16:17:43.471Z,16.42
2017-12-20T16:20:10.465Z,17.25
2017-12-20T16:22:38.110Z,13.57
2017-12-20T16:25:05.107Z,14.70
2017-12-20T16:27:34.290Z,15.23
2017-12-20T16:30:01.504Z,11.12
2017-12-20T16:32:28.141Z,20.80
2017-12-20T16:34:55.501Z,12.10
2017-12-20T16:37:22.054Z,15.20
2017-12-20T16:39:50.065Z,15.63
2017-12-20T16:42:17.198Z,19.25
2017-12-20T16:44:45.755Z,12.10
2017-12-20T16:47:12.819Z,10.88
2017-12-20T16:49:39.404Z,12.43
2017-12-20T16:52:08.399Z,13.05
2017-12-20T16:54:35.660Z,13.77
2017-12-20T16:57:03.847Z,10.85
2017-12-20T16:59:31.549Z,11.20
2017-12-20T17:01:58.435Z,11.48
2017-12-20T17:04:26.378Z,12.98
2017-12-20T17:06:53.546Z,14.73
2017-12-20T17:09:21.337Z,14.40
2017-12-20T17:11:48.283Z,13.50
2017-12-20T17:14:14.923Z,14.23
2017-12-20T17:16:43.579Z,16.60
2017-12-20T17:19:10.773Z,13.13
2017-12-20T17:21:37.280Z,13.57
2017-12-20T17:24:11.018Z,15.85
2017-12-20T17:26:39.271Z,14.23
2017-12-20T17:29:06.586Z,14.73
2017-12-20T17:31:40.724Z,17.52
2017-12-20T17:34:07.571Z,16.58
2017-12-20T17:36:34.367Z,15.90
2017-12-20T17:39:03.001Z,15.35
2017-12-20T17:41:30.103Z,17.02
2017-12-20T17:43:57.048Z,17.35
2017-12-20T17:46:24.238Z,16.45
2017-12-20T17:48:52.494Z,14.07
2017-12-20T17:51:19.011Z,19.25
2017-12-20T17:53:46.024Z,14.43
2017-12-20T17:56:13.039Z,14.05
2017-12-20T17:58:42.644Z,15.10
2017-12-20T18:01:09.593Z,18.17
2017-12-20T18:03:36.900Z,17.48
2017-12-20T18:06:04.458Z,16.77
2017-12-20T18:08:32.096Z,17.35
2017-12-20T18:10:59.757Z,20.52
2017-12-20T18:13:29.311Z,19.23
2017-12-20T18:15:56.528Z,19.48
2017-12-20T18:18:23.279Z,17.05
2017-12-20T18:20:51.084Z,18.62
2017-12-20T18:23:18.245Z,17.85
2017-12-20T18:25:44.739Z,19.83
2017-12-20T18:28:12.172Z,16.10
2017-12-20T18:30:39.277Z,19.50
2017-12-20T18:33:08.343Z,20.00
2017-12-20T18:35:35.946Z,19.20
2017-12-20T18:38:02.803Z,20.60
2017-12-20T18:40:29.667Z,20.30
2017-12-20T18:42:56.448Z,19.95
2017-12-20T18:45:23.724Z,18.55
2017-12-20T18:47:51.487Z,21.67
2017-12-20T18:50:18.649Z,19.15
2017-12-20T18:52:47.384Z,20.45
2017-12-20T18:55:14.239Z,17.02
2017-12-20T18:57:41.527Z,21.70
2017-12-20T19:00:09.347Z,17.33
2017-12-20T19:02:35.854Z,22.30
2017-12-20T19:05:03.673Z,21.80
2017-12-20T19:07:30.917Z,19.77
2017-12-20T19:09:58.011Z,18.62
2017-12-20T19:12:25.088Z,23.35
2017-12-20T19:14:53.175Z,20.15
2017-12-20T19:17:20.674Z,22.25
2017-12-20T19:19:47.921Z,23.30
2017-12-20T19:22:15.159Z,22.15
2017-12-20T19:24:42.530Z,22.85
2017-12-20T19:30:07.199Z,24.05
2017-12-20T19:32:34.282Z,22.73
2017-12-20T19:35:01.702Z,20.15
2017-12-20T19:37:29.291Z,20.88
2017-12-20T19:39:57.623Z,19.90
2017-12-20T19:42:24.203Z,20.58
2017-12-20T19:44:52.681Z,23.62
2017-12-20T19:47:20.018Z,24.25
2017-12-20T19:49:46.827Z,20.30
2017-12-20T19:52:15.118Z,20.40
2017-12-20T19:54:42.145Z,24.63
2017-12-20T19:57:10.034Z,19.90
2017-12-20T19:59:37.080Z,19.15
2017-12-20T20:02:04.632Z,21.62
2017-12-20T20:04:32.635Z,22.20
2017-12-20T20:07:00.760Z,19.65
2017-12-20T20:09:29.220Z,22.00
2017-12-20T20:11:56.917Z,21.70
2017-12-20T20:14:29.916Z,22.13
2017-12-20T20:16:57.954Z,20.37
2017-12-20T20:19:26.222Z,18.80
2017-12-20T20:21:54.487Z,18.23
2017-12-20T20:24:22.608Z,20.30
2017-12-20T20:26:52.948Z,19.10
2017-12-20T20:29:20.919Z,21.77
2017-12-20T20:31:48.376Z,20.48
2017-12-20T20:34:17.068Z,23.45
2017-12-20T20:36:45.745Z,18.65
2017-12-20T20:39:13.259Z,19.60
2017-12-20T20:41:40.982Z,15.02
2017-12-20T20:44:08.725Z,15.95
2017-12-20T20:46:36.518Z,19.40
2017-12-20T20:49:04.179Z,17.10
2017-12-20T20:51:31.914Z,15.45
2017-12-20T20:53:59.832Z,15.63
2017-12-20T20:56:28.416Z,15.30
2017-12-20T20:58:56.503Z,16.65
2017-12-20T21:01:24.216Z,17.85
2017-12-20T21:03:51.699Z,15.68
2017-12-20T21:06:19.335Z,15.40
2017-12-20T21:08:47.570Z,20.65
2017-12-20T21:11:14.814Z,18.75
2017-12-20T21:13:41.564Z,17.83
2017-12-20T21:16:15.811Z,18.75
2017-12-20T21:18:43.680Z,18.85
2017-12-20T21:21:11.422Z,17.40
2017-12-20T21:23:39.050Z,15.90
2017-12-20T21:26:06.054Z,19.62
2017-12-20T21:28:33.653Z,18.45
2017-12-20T21:31:00.602Z,21.42
2017-12-20T21:33:28.117Z,20.08
2017-12-20T21:35:56.033Z,21.10
2017-12-20T21:38:22.992Z,21.85
2017-12-20T21:40:49.871Z,22.27
2017-12-20T21:43:17.439Z,21.80
2017-12-20T21:45:44.832Z,20.60
2017-12-20T21:48:13.414Z,18.42
2017-12-20T21:50:41.026Z,21.83
2017-12-20T21:53:08.149Z,18.12
2017-12-20T21:55:36.341Z,18.08
2017-12-20T21:58:03.424Z,17.10
2017-12-20T22:00:30.538Z,21.00
2017-12-20T22:02:58.219Z,23.75
2017-12-20T22:05:25.636Z,21.40
2017-12-20T22:07:53.531Z,22.17
2017-12-20T22:10:21.438Z,20.10
2017-12-20T22:12:47.980Z,22.13
2017-12-20T22:15:15.236Z,20.60
2017-12-20T22:17:42.070Z,22.87
2017-12-20T22:20:09.094Z,20.58
2017-12-20T22:22:36.952Z,21.73
2017-12-20T22:25:04.176Z,19.70
2017-12-20T22:27:31.071Z,27.50
2017-12-20T22:29:58.603Z,21.67
2017-12-20T22:32:25.485Z,20.73
2017-12-20T22:34:53.422Z,20.23
2017-12-20T22:37:20.235Z,23.98
2017-12-20T22:39:48.666Z,22.23
2017-12-20T22:42:15.602Z,25.45
2017-12-20T22:44:42.493Z,20.55
2017-12-20T22:47:10.871Z,21.23
2017-12-20T22:49:38.626Z,20.50
2017-12-20T22:52:05.573Z,19.98
2017-12-20T22:54:32.622Z,19.80
2017-12-20T22:57:01.232Z,19.60
2017-12-20T22:59:28.589Z,19.10
2017-12-20T23:01:56.305Z,22.55
2017-12-20T23:04:24.610Z,23.75
2017-12-20T23:06:52.017Z,21.65
2017-12-20T23:09:25.922Z,25.25
2017-12-20T23:11:53.646Z,19.90
2017-12-20T23:14:23.238Z,19.27
2017-12-20T23:16:50.388Z,20.77
2017-12-20T23:19:17.168Z,22.83
2017-12-20T23:21:44.579Z,22.90
2017-12-20T23:24:11.223Z,23.12
2017-12-20T23:26:38.315Z,24.00
2017-12-20T23:29:05.194Z,22.10
2017-12-20T23:31:33.084Z,23.35
2017-12-20T23:34:00.042Z,23.55
2017-12-20T23:36:26.734Z,23.65
2017-12-20T23:38:53.472Z,22.77
2017-12-20T23:41:20.123Z,27.08
2017-12-20T23:43:47.122Z,23.92
2017-12-20T23:46:14.114Z,23.50
2017-12-20T23:48:41.122Z,24.00
2017-12-20T23:51:07.735Z,22.92
2017-12-20T23:53:35.315Z,24.00
2017-12-20T23:56:02.985Z,21.12
2017-12-20T23:58:30.611Z,23.98
